Briefing drone pour Longvic

Rechercher une autre localisation

Conditions de vol :


Nous sommes le : Lundi 08 mars 2021
Il est 07:05 UTC (08:05 LT)

Lever de soleil : 05:39 UTC (06:39 LT)
Coucher de soleil : 18:01 UTC (19:01 LT)

Météo

L'essentiel des conditions de vol

VIGILANCE MÉTÉO FRANCE - Côte-dOr (21)
Pas de vigilances particulieres
CARTE TEMSI
CARTES DES FRONTS
METAR de LFSD
LFSD 080700Z AUTO 35006KT 340V040 CAVOK 03/M04 Q1018

Date d'émission: 08/03/2021
Heure d'émission: 07:00 UTC
Vent: 350° (variable du 340° au 040°) pour 6 KT (11 km/h)
Visibilité horizontale: > 10 km
Plafond : Plafond et visibilité OK (CAVOK)
Température: 3 °C
Point de rosée: -4 °C
Humidité: 60%
Pression (QNH): 1018 hPa
TAF de LFSD
LFSD 010600Z 0100/0124 CNL

Conditions prévues :

Heure d'émission : Bulletin éffectué le 01 à 00:00 UTC
Prévision : Valide du 01 a 00:00 UTC au 01 a 23:59 UTC
Nuages : à 0ft (0 m)
WEBCAM POUR LONGVIC

Réglementation

Voler en sécurité

CARTES AERONAUTIQUE 1/500.000
CARTES VAC (LFSD)
SUP AIP




Chargement des AIP...
NOTAM (LONGVIC + Terrain à proximité / FIR )




Chargement des NOTAMS...
CONTACT PREFECTURE 21
Côte-dOr (21) : pref-drone@cote-dor.gouv.fr


Avertissement : Les données mises à disposition sont indicatives. Oxygène Drone ne pourra être tenu responsable de dégâts causés aux biens et aux personnes.